createdAt,value
2023-01-18T00:01:36.781Z,98384.66
2023-01-18T00:06:28.697Z,98448.31
2023-01-18T00:11:20.343Z,98402.63
2023-01-18T00:16:15.246Z,98505.00
2023-01-18T00:21:10.695Z,98509.19
2023-01-18T00:26:08.412Z,98506.78
2023-01-18T00:31:00.354Z,98357.78
2023-01-18T00:35:59.422Z,98398.94
2023-01-18T00:40:51.447Z,98433.28
2023-01-18T00:45:43.205Z,98526.16
2023-01-18T00:50:34.856Z,98441.09
2023-01-18T00:55:27.014Z,98380.66
2023-01-18T01:00:19.028Z,98392.84
2023-01-18T01:05:37.889Z,98504.47
2023-01-18T01:10:29.556Z,98315.28
2023-01-18T01:15:39.754Z,98526.75
2023-01-18T01:20:49.989Z,98450.63
2023-01-18T01:26:01.581Z,98470.88
2023-01-18T01:30:57.798Z,98524.75
2023-01-18T01:35:49.905Z,98488.47
2023-01-18T01:40:41.543Z,98546.50
2023-01-18T01:45:33.861Z,98549.06
2023-01-18T01:50:35.857Z,98458.97
2023-01-18T01:55:34.932Z,98504.25
2023-01-18T02:00:26.954Z,98555.19
2023-01-18T02:05:19.040Z,98477.81
2023-01-18T02:10:11.252Z,98473.22
2023-01-18T02:15:03.443Z,98570.44
2023-01-18T02:20:19.574Z,98573.63
2023-01-18T02:25:33.253Z,98569.66
2023-01-18T02:31:02.148Z,98573.56
2023-01-18T02:35:56.584Z,98377.41
2023-01-18T02:40:57.353Z,98592.56
2023-01-18T02:46:08.671Z,98604.63
2023-01-18T02:51:00.348Z,98538.97
2023-01-18T02:56:13.051Z,98506.06
2023-01-18T03:01:07.485Z,98604.81
2023-01-18T03:06:02.236Z,98607.97
2023-01-18T03:11:04.781Z,98551.63
2023-01-18T03:16:22.700Z,98559.97
2023-01-18T03:21:14.431Z,98482.91
2023-01-18T03:26:12.055Z,98613.06
2023-01-18T03:31:28.737Z,98591.81
2023-01-18T03:36:25.397Z,98629.59
2023-01-18T03:41:18.588Z,98623.25
2023-01-18T03:46:11.876Z,98508.06
2023-01-18T03:51:21.093Z,98562.03
2023-01-18T03:56:39.109Z,98588.16
2023-01-18T04:01:31.502Z,98510.91
2023-01-18T04:06:25.705Z,98530.81
2023-01-18T04:11:18.027Z,98597.50
2023-01-18T04:16:09.941Z,98633.13
2023-01-18T04:21:01.594Z,98666.78
2023-01-18T04:25:53.213Z,98564.13
2023-01-18T04:30:45.607Z,98532.91
2023-01-18T04:35:37.472Z,98670.03
2023-01-18T04:40:29.010Z,98670.72
2023-01-18T04:45:20.934Z,98682.53
2023-01-18T04:50:12.665Z,98641.09
2023-01-18T04:55:04.606Z,98602.56
2023-01-18T04:59:56.263Z,98596.47
2023-01-18T05:04:48.082Z,98660.59
2023-01-18T05:09:39.700Z,98714.63
2023-01-18T05:14:31.340Z,98730.16
2023-01-18T05:19:22.933Z,98625.00
2023-01-18T05:24:14.580Z,98732.53
2023-01-18T05:29:06.475Z,98746.03
2023-01-18T05:33:58.031Z,98754.19
2023-01-18T05:38:49.688Z,98613.13
2023-01-18T05:43:41.430Z,98639.09
2023-01-18T05:48:33.388Z,98766.25
2023-01-18T05:53:25.748Z,98691.41
2023-01-18T05:58:17.369Z,98786.53
2023-01-18T06:03:10.765Z,98796.63
2023-01-18T06:08:02.678Z,98792.13
2023-01-18T06:12:54.329Z,98749.97
2023-01-18T06:17:49.358Z,98785.25
2023-01-18T06:22:41.240Z,98782.38
2023-01-18T06:27:32.832Z,98842.28
2023-01-18T06:32:24.473Z,98778.72
2023-01-18T06:37:16.112Z,98838.63
2023-01-18T06:42:07.684Z,98846.06
2023-01-18T06:46:59.308Z,98758.06
2023-01-18T06:51:50.894Z,98855.88
2023-01-18T06:56:42.840Z,98829.69
2023-01-18T07:01:34.473Z,98752.31
2023-01-18T07:06:26.262Z,98880.50
2023-01-18T07:11:18.808Z,98891.63
2023-01-18T07:16:17.953Z,98840.88
2023-01-18T07:21:10.707Z,98900.94
2023-01-18T07:26:04.206Z,98804.28
2023-01-18T07:30:55.793Z,98909.72
2023-01-18T07:35:47.360Z,98907.16
2023-01-18T07:40:39.042Z,98923.19
2023-01-18T07:45:30.663Z,98924.28
2023-01-18T07:50:22.548Z,98918.41
2023-01-18T07:55:14.240Z,98764.84
2023-01-18T08:00:11.119Z,98923.03
2023-01-18T08:05:05.892Z,98961.22
2023-01-18T08:09:58.044Z,98971.91
2023-01-18T08:14:49.663Z,98985.09
2023-01-18T08:19:41.363Z,98983.69
2023-01-18T08:24:32.943Z,98992.84
2023-01-18T08:29:24.656Z,98963.91
2023-01-18T08:34:16.286Z,99015.31
2023-01-18T08:39:07.955Z,99018.25
2023-01-18T08:43:59.882Z,99024.28
2023-01-18T08:48:54.871Z,98967.59
2023-01-18T08:53:47.469Z,99031.78
2023-01-18T08:58:39.044Z,99001.59
2023-01-18T09:03:30.611Z,99047.00
2023-01-18T09:08:22.804Z,99017.59
2023-01-18T09:13:14.602Z,99062.88
2023-01-18T09:18:08.057Z,98986.88
2023-01-18T09:23:04.787Z,99049.78
2023-01-18T09:27:56.412Z,99009.88
2023-01-18T09:32:48.004Z,99086.75
2023-01-18T09:37:39.583Z,99094.34
2023-01-18T09:42:37.849Z,99073.88
2023-01-18T09:47:34.415Z,99008.09
2023-01-18T09:52:32.358Z,99113.19
2023-01-18T09:57:30.161Z,99112.84
2023-01-18T10:02:24.372Z,98991.44
2023-01-18T10:07:17.974Z,99123.84
2023-01-18T10:12:24.739Z,99123.38
2023-01-18T10:17:28.923Z,99026.53
2023-01-18T10:22:34.239Z,99132.72
2023-01-18T10:27:37.591Z,99141.47
2023-01-18T10:32:31.462Z,99055.50
2023-01-18T10:37:45.442Z,99132.19
2023-01-18T10:42:48.801Z,99051.50
2023-01-18T10:47:40.410Z,99145.28
2023-01-18T10:52:32.603Z,99145.06
2023-01-18T10:57:32.150Z,99121.38
2023-01-18T11:02:29.526Z,99147.31
2023-01-18T11:07:25.654Z,99151.47
2023-01-18T11:12:38.510Z,99148.72
2023-01-18T11:17:30.964Z,99113.22
2023-01-18T11:22:24.390Z,99061.63
2023-01-18T11:27:23.102Z,99163.69
2023-01-18T11:32:30.336Z,99042.72
2023-01-18T11:37:27.875Z,99168.50
2023-01-18T11:42:36.623Z,99163.72
2023-01-18T11:47:37.675Z,99109.88
2023-01-18T11:52:51.742Z,99116.03
2023-01-18T11:57:44.928Z,99124.41
2023-01-18T12:02:45.494Z,99157.03
2023-01-18T12:08:05.533Z,99142.13
2023-01-18T12:13:31.342Z,99160.28
2023-01-18T12:18:28.869Z,99161.69
2023-01-18T12:23:43.610Z,99160.69
2023-01-18T12:29:12.899Z,99164.84
2023-01-18T12:34:18.680Z,99144.09
2023-01-18T12:39:47.596Z,99109.00
2023-01-18T12:45:00.829Z,99164.34
2023-01-18T12:49:59.326Z,99142.44
2023-01-18T12:54:56.011Z,99147.19
2023-01-18T13:00:09.135Z,99183.31
2023-01-18T13:05:43.148Z,99176.13
2023-01-18T13:10:36.479Z,99174.63
2023-01-18T13:15:52.541Z,99124.66
2023-01-18T13:21:03.059Z,99180.03
2023-01-18T13:26:14.850Z,99130.25
2023-01-18T13:31:06.767Z,99190.34
2023-01-18T13:36:09.961Z,99127.00
2023-01-18T13:41:04.785Z,99176.66
2023-01-18T13:46:08.603Z,99199.81
2023-01-18T13:51:00.873Z,99213.78
2023-01-18T13:56:04.895Z,99215.56
2023-01-18T14:01:05.488Z,99154.03
2023-01-18T14:05:58.472Z,99182.88
2023-01-18T14:10:53.656Z,99238.66
2023-01-18T14:15:52.003Z,99242.03
2023-01-18T14:21:25.807Z,99235.84
2023-01-18T14:26:19.348Z,99199.69
2023-01-18T14:31:18.517Z,99244.13
2023-01-18T14:36:24.469Z,99252.91
2023-01-18T14:41:17.916Z,99262.94
2023-01-18T14:46:16.535Z,99152.91
2023-01-18T14:51:08.172Z,99166.06
2023-01-18T14:56:18.329Z,99216.75
2023-01-18T15:01:31.639Z,99288.81
2023-01-18T15:06:30.339Z,99260.03
2023-01-18T15:11:23.613Z,99282.56
2023-01-18T15:16:24.261Z,99270.13
2023-01-18T15:21:21.519Z,99297.66
2023-01-18T15:26:13.640Z,99332.78
2023-01-18T15:31:15.353Z,99338.09
2023-01-18T15:36:09.892Z,99337.25
2023-01-18T15:41:10.981Z,99297.00
2023-01-18T15:46:08.865Z,99342.88
2023-01-18T15:51:07.374Z,99332.25
2023-01-18T15:56:05.066Z,99339.31
2023-01-18T16:01:00.351Z,99220.16
2023-01-18T16:05:58.090Z,99348.47
2023-01-18T16:10:55.626Z,99149.97
2023-01-18T16:16:14.041Z,99361.63
2023-01-18T16:21:11.967Z,99227.03
2023-01-18T16:26:04.834Z,99287.97
2023-01-18T16:30:56.580Z,99298.31
2023-01-18T16:35:48.892Z,99367.38
2023-01-18T16:40:44.043Z,99269.59
2023-01-18T16:45:38.999Z,99386.91
2023-01-18T16:50:31.291Z,99347.84
2023-01-18T16:55:23.098Z,99384.25
2023-01-18T17:00:19.280Z,99368.50
2023-01-18T17:05:12.036Z,99402.44
2023-01-18T17:10:18.780Z,99292.69
2023-01-18T17:15:10.858Z,99414.63
2023-01-18T17:20:16.362Z,99313.06
2023-01-18T17:25:08.378Z,99388.28
2023-01-18T17:30:00.646Z,99372.50
2023-01-18T17:34:52.305Z,99374.72
2023-01-18T17:40:02.243Z,99322.44
2023-01-18T17:45:02.562Z,99241.22
2023-01-18T17:49:54.420Z,99350.78
2023-01-18T17:54:46.080Z,99441.00
2023-01-18T17:59:37.605Z,99447.66
2023-01-18T18:04:30.624Z,99457.38
2023-01-18T18:09:22.239Z,99407.28
2023-01-18T18:14:13.800Z,99225.34
2023-01-18T18:19:05.938Z,99430.72
2023-01-18T18:23:58.566Z,99484.09
2023-01-18T18:28:50.245Z,99491.63
2023-01-18T18:33:42.502Z,99507.84
2023-01-18T18:38:34.332Z,99457.69
2023-01-18T18:43:26.193Z,99517.34
2023-01-18T18:48:17.995Z,99464.56
2023-01-18T18:53:09.744Z,99469.38
2023-01-18T18:58:01.643Z,99418.66
2023-01-18T19:03:02.382Z,99463.31
2023-01-18T19:07:58.249Z,99544.44
2023-01-18T19:12:51.967Z,99435.88
2023-01-18T19:17:43.728Z,99506.69
2023-01-18T19:22:38.127Z,99509.28
2023-01-18T19:27:30.145Z,99562.41
2023-01-18T19:32:22.003Z,99573.63
2023-01-18T19:37:13.866Z,99478.22
2023-01-18T19:42:06.864Z,99575.75
2023-01-18T19:46:58.524Z,99443.72
2023-01-18T19:51:50.307Z,99540.84
2023-01-18T19:56:41.937Z,99549.53
2023-01-18T20:01:36.791Z,99470.97
2023-01-18T20:06:28.876Z,99559.06
2023-01-18T20:11:20.584Z,99528.22
2023-01-18T20:16:12.317Z,99563.44
2023-01-18T20:21:14.193Z,99585.06
2023-01-18T20:26:06.420Z,99486.66
2023-01-18T20:30:59.691Z,99514.50
2023-01-18T20:35:52.996Z,99541.63
2023-01-18T20:40:44.682Z,99599.53
2023-01-18T20:45:36.421Z,99609.69
2023-01-18T20:50:28.303Z,99562.91
2023-01-18T20:55:20.561Z,99586.34
2023-01-18T21:00:13.254Z,99610.69
2023-01-18T21:05:05.372Z,99564.09
2023-01-18T21:09:57.050Z,99544.47
2023-01-18T21:14:48.669Z,99604.28
2023-01-18T21:19:47.489Z,99565.31
2023-01-18T21:24:39.344Z,99582.13
2023-01-18T21:29:30.923Z,99586.78
2023-01-18T21:34:22.464Z,99609.41
2023-01-18T21:39:18.485Z,99644.28
2023-01-18T21:44:30.844Z,99651.22
2023-01-18T21:50:11.443Z,99506.28
2023-01-18T21:54:52.633Z,99594.75
2023-01-18T21:59:45.468Z,99609.78
2023-01-18T22:04:56.916Z,99661.41
2023-01-18T22:10:03.129Z,99557.38
2023-01-18T22:14:57.106Z,99645.22
2023-01-18T22:19:48.814Z,99414.75
2023-01-18T22:24:40.563Z,99611.31
2023-01-18T22:29:32.784Z,99679.94
2023-01-18T22:34:24.402Z,99465.28
2023-01-18T22:39:16.463Z,99590.59
2023-01-18T22:44:08.430Z,99625.03
2023-01-18T22:49:00.125Z,99696.91
2023-01-18T22:53:52.192Z,99689.19
2023-01-18T22:58:45.158Z,99632.59
2023-01-18T23:03:36.998Z,99696.75
2023-01-18T23:08:38.392Z,99551.91
2023-01-18T23:13:29.909Z,99639.50
2023-01-18T23:18:21.430Z,99699.13
2023-01-18T23:23:12.984Z,99643.00
2023-01-18T23:28:05.066Z,99585.66
2023-01-18T23:32:57.080Z,99715.94
2023-01-18T23:37:48.662Z,99681.22
2023-01-18T23:42:58.824Z,99639.50
2023-01-18T23:48:09.001Z,99723.00
2023-01-18T23:53:19.809Z,99635.88
2023-01-18T23:58:11.689Z,99688.53
